sensor_id;sensor_type;location;lat;lon;timestamp;P1;durP1;ratioP1;P2;durP2;ratioP2
5297;SDS011;14738;42.668;23.250;2023-03-14T00:01:53;25.10;;;16.60;;
5297;SDS011;14738;42.668;23.250;2023-03-14T00:04:19;24.53;;;17.10;;
5297;SDS011;14738;42.668;23.250;2023-03-14T00:06:44;29.40;;;17.87;;
5297;SDS011;14738;42.668;23.250;2023-03-14T00:09:11;24.37;;;16.13;;
5297;SDS011;14738;42.668;23.250;2023-03-14T00:11:37;25.57;;;16.00;;
5297;SDS011;14738;42.668;23.250;2023-03-14T00:14:03;26.10;;;16.70;;
5297;SDS011;14738;42.668;23.250;2023-03-14T00:16:28;25.37;;;16.93;;
5297;SDS011;14738;42.668;23.250;2023-03-14T00:18:54;27.03;;;17.83;;
5297;SDS011;14738;42.668;23.250;2023-03-14T00:21:19;27.03;;;17.37;;
5297;SDS011;14738;42.668;23.250;2023-03-14T00:23:45;30.80;;;18.50;;
5297;SDS011;14738;42.668;23.250;2023-03-14T00:26:12;35.83;;;19.10;;
5297;SDS011;14738;42.668;23.250;2023-03-14T00:28:39;30.30;;;18.13;;
5297;SDS011;14738;42.668;23.250;2023-03-14T00:31:06;42.53;;;19.13;;
5297;SDS011;14738;42.668;23.250;2023-03-14T00:33:33;48.27;;;22.27;;
5297;SDS011;14738;42.668;23.250;2023-03-14T00:36:00;39.23;;;19.50;;
5297;SDS011;14738;42.668;23.250;2023-03-14T00:38:27;41.30;;;19.60;;
5297;SDS011;14738;42.668;23.250;2023-03-14T00:40:53;44.83;;;21.37;;
5297;SDS011;14738;42.668;23.250;2023-03-14T00:43:19;37.93;;;19.67;;
5297;SDS011;14738;42.668;23.250;2023-03-14T00:45:49;43.20;;;21.07;;
5297;SDS011;14738;42.668;23.250;2023-03-14T00:48:18;32.10;;;20.10;;
5297;SDS011;14738;42.668;23.250;2023-03-14T00:50:45;42.13;;;20.00;;
5297;SDS011;14738;42.668;23.250;2023-03-14T00:53:11;37.50;;;20.67;;
5297;SDS011;14738;42.668;23.250;2023-03-14T00:55:38;35.77;;;19.57;;
5297;SDS011;14738;42.668;23.250;2023-03-14T00:58:05;25.43;;;17.33;;
5297;SDS011;14738;42.668;23.250;2023-03-14T01:00:31;29.53;;;17.90;;
5297;SDS011;14738;42.668;23.250;2023-03-14T01:02:57;26.23;;;16.63;;
5297;SDS011;14738;42.668;23.250;2023-03-14T01:05:23;24.50;;;16.00;;
5297;SDS011;14738;42.668;23.250;2023-03-14T01:07:49;29.97;;;16.80;;
5297;SDS011;14738;42.668;23.250;2023-03-14T01:10:14;25.13;;;16.03;;
5297;SDS011;14738;42.668;23.250;2023-03-14T01:12:40;27.07;;;16.70;;
5297;SDS011;14738;42.668;23.250;2023-03-14T01:15:06;29.67;;;16.20;;
5297;SDS011;14738;42.668;23.250;2023-03-14T01:17:32;26.90;;;16.97;;
5297;SDS011;14738;42.668;23.250;2023-03-14T01:19:58;25.00;;;14.87;;
5297;SDS011;14738;42.668;23.250;2023-03-14T01:22:24;29.27;;;16.03;;
5297;SDS011;14738;42.668;23.250;2023-03-14T01:24:50;22.07;;;14.53;;
5297;SDS011;14738;42.668;23.250;2023-03-14T01:27:15;17.83;;;13.27;;
5297;SDS011;14738;42.668;23.250;2023-03-14T01:29:43;21.60;;;13.70;;
5297;SDS011;14738;42.668;23.250;2023-03-14T01:32:09;19.77;;;13.60;;
5297;SDS011;14738;42.668;23.250;2023-03-14T01:34:34;19.80;;;13.30;;
5297;SDS011;14738;42.668;23.250;2023-03-14T01:37:00;18.13;;;13.30;;
5297;SDS011;14738;42.668;23.250;2023-03-14T01:39:25;26.60;;;15.47;;
5297;SDS011;14738;42.668;23.250;2023-03-14T01:41:51;26.70;;;15.23;;
5297;SDS011;14738;42.668;23.250;2023-03-14T01:44:16;27.87;;;15.53;;
5297;SDS011;14738;42.668;23.250;2023-03-14T01:46:42;20.30;;;14.53;;
5297;SDS011;14738;42.668;23.250;2023-03-14T01:54:30;19.17;;;12.47;;
5297;SDS011;14738;42.668;23.250;2023-03-14T01:57:04;16.97;;;12.03;;
5297;SDS011;14738;42.668;23.250;2023-03-14T01:59:33;14.77;;;12.30;;
5297;SDS011;14738;42.668;23.250;2023-03-14T02:02:00;19.07;;;13.33;;
5297;SDS011;14738;42.668;23.250;2023-03-14T02:04:28;17.00;;;12.77;;
5297;SDS011;14738;42.668;23.250;2023-03-14T02:09:36;18.43;;;12.93;;
5297;SDS011;14738;42.668;23.250;2023-03-14T02:12:05;18.00;;;12.33;;
5297;SDS011;14738;42.668;23.250;2023-03-14T02:14:33;18.33;;;12.70;;
5297;SDS011;14738;42.668;23.250;2023-03-14T02:17:00;17.97;;;12.90;;
5297;SDS011;14738;42.668;23.250;2023-03-14T02:19:41;18.70;;;13.17;;
5297;SDS011;14738;42.668;23.250;2023-03-14T02:22:14;19.30;;;14.27;;
5297;SDS011;14738;42.668;23.250;2023-03-14T02:27:36;18.93;;;13.37;;
5297;SDS011;14738;42.668;23.250;2023-03-14T02:33:03;29.97;;;15.27;;
5297;SDS011;14738;42.668;23.250;2023-03-14T02:36:14;22.20;;;14.33;;
5297;SDS011;14738;42.668;23.250;2023-03-14T02:38:33;23.47;;;14.13;;
5297;SDS011;14738;42.668;23.250;2023-03-14T02:41:03;35.53;;;16.90;;
5297;SDS011;14738;42.668;23.250;2023-03-14T02:43:28;29.73;;;16.40;;
5297;SDS011;14738;42.668;23.250;2023-03-14T02:45:54;30.93;;;18.00;;
5297;SDS011;14738;42.668;23.250;2023-03-14T02:48:21;26.43;;;15.07;;
5297;SDS011;14738;42.668;23.250;2023-03-14T02:50:56;23.53;;;13.63;;
5297;SDS011;14738;42.668;23.250;2023-03-14T02:53:28;21.17;;;14.47;;
5297;SDS011;14738;42.668;23.250;2023-03-14T02:55:58;18.27;;;12.70;;
5297;SDS011;14738;42.668;23.250;2023-03-14T02:58:25;23.70;;;14.43;;
5297;SDS011;14738;42.668;23.250;2023-03-14T03:00:51;21.60;;;12.77;;
5297;SDS011;14738;42.668;23.250;2023-03-14T03:03:17;15.23;;;11.60;;
5297;SDS011;14738;42.668;23.250;2023-03-14T03:05:43;17.37;;;12.40;;
5297;SDS011;14738;42.668;23.250;2023-03-14T03:08:15;18.07;;;12.70;;
5297;SDS011;14738;42.668;23.250;2023-03-14T03:10:41;23.13;;;13.73;;
5297;SDS011;14738;42.668;23.250;2023-03-14T03:13:07;19.30;;;13.03;;
5297;SDS011;14738;42.668;23.250;2023-03-14T03:15:32;18.73;;;12.73;;
5297;SDS011;14738;42.668;23.250;2023-03-14T03:17:58;22.47;;;12.97;;
5297;SDS011;14738;42.668;23.250;2023-03-14T03:20:23;17.03;;;12.30;;
5297;SDS011;14738;42.668;23.250;2023-03-14T03:22:49;16.47;;;11.33;;
5297;SDS011;14738;42.668;23.250;2023-03-14T03:25:15;12.10;;;10.63;;
5297;SDS011;14738;42.668;23.250;2023-03-14T03:27:40;15.00;;;11.07;;
5297;SDS011;14738;42.668;23.250;2023-03-14T03:30:06;15.93;;;12.13;;
5297;SDS011;14738;42.668;23.250;2023-03-14T03:32:32;20.50;;;11.67;;
5297;SDS011;14738;42.668;23.250;2023-03-14T03:34:58;16.30;;;12.57;;
5297;SDS011;14738;42.668;23.250;2023-03-14T03:37:23;16.23;;;12.67;;
5297;SDS011;14738;42.668;23.250;2023-03-14T03:39:55;17.10;;;12.00;;
5297;SDS011;14738;42.668;23.250;2023-03-14T03:42:20;30.63;;;14.57;;
5297;SDS011;14738;42.668;23.250;2023-03-14T03:44:46;21.87;;;13.53;;
5297;SDS011;14738;42.668;23.250;2023-03-14T03:47:12;17.20;;;11.57;;
5297;SDS011;14738;42.668;23.250;2023-03-14T03:49:37;18.63;;;12.60;;
5297;SDS011;14738;42.668;23.250;2023-03-14T03:52:03;13.00;;;10.73;;
5297;SDS011;14738;42.668;23.250;2023-03-14T03:54:28;15.27;;;11.50;;
5297;SDS011;14738;42.668;23.250;2023-03-14T03:56:55;23.47;;;13.30;;
5297;SDS011;14738;42.668;23.250;2023-03-14T03:59:20;18.60;;;14.17;;
5297;SDS011;14738;42.668;23.250;2023-03-14T04:01:46;36.53;;;18.53;;
5297;SDS011;14738;42.668;23.250;2023-03-14T04:04:12;26.70;;;15.83;;
5297;SDS011;14738;42.668;23.250;2023-03-14T04:06:40;21.50;;;13.40;;
5297;SDS011;14738;42.668;23.250;2023-03-14T04:09:07;22.90;;;13.70;;
5297;SDS011;14738;42.668;23.250;2023-03-14T04:11:33;22.93;;;13.00;;
5297;SDS011;14738;42.668;23.250;2023-03-14T04:13:59;18.80;;;13.30;;
5297;SDS011;14738;42.668;23.250;2023-03-14T04:16:24;24.70;;;12.87;;
5297;SDS011;14738;42.668;23.250;2023-03-14T04:18:51;21.43;;;12.90;;
5297;SDS011;14738;42.668;23.250;2023-03-14T04:21:16;23.17;;;15.93;;
5297;SDS011;14738;42.668;23.250;2023-03-14T04:23:43;30.03;;;16.67;;
5297;SDS011;14738;42.668;23.250;2023-03-14T04:26:08;31.10;;;17.27;;
5297;SDS011;14738;42.668;23.250;2023-03-14T04:28:34;26.93;;;14.73;;
5297;SDS011;14738;42.668;23.250;2023-03-14T04:31:08;32.50;;;17.77;;
5297;SDS011;14738;42.668;23.250;2023-03-14T04:33:38;48.83;;;19.60;;
5297;SDS011;14738;42.668;23.250;2023-03-14T04:36:06;29.60;;;17.00;;
5297;SDS011;14738;42.668;23.250;2023-03-14T04:38:33;36.40;;;17.67;;
5297;SDS011;14738;42.668;23.250;2023-03-14T04:40:58;39.70;;;20.13;;
5297;SDS011;14738;42.668;23.250;2023-03-14T04:46:34;40.70;;;20.13;;
5297;SDS011;14738;42.668;23.250;2023-03-14T04:48:59;41.70;;;19.90;;
5297;SDS011;14738;42.668;23.250;2023-03-14T04:51:25;45.23;;;24.17;;
5297;SDS011;14738;42.668;23.250;2023-03-14T04:53:52;45.30;;;24.93;;
5297;SDS011;14738;42.668;23.250;2023-03-14T04:56:19;44.67;;;24.13;;
5297;SDS011;14738;42.668;23.250;2023-03-14T04:58:44;42.73;;;23.97;;
5297;SDS011;14738;42.668;23.250;2023-03-14T05:01:09;42.03;;;21.83;;
5297;SDS011;14738;42.668;23.250;2023-03-14T05:03:35;29.17;;;15.97;;
5297;SDS011;14738;42.668;23.250;2023-03-14T05:06:03;27.10;;;16.53;;
5297;SDS011;14738;42.668;23.250;2023-03-14T05:08:29;38.03;;;18.60;;
5297;SDS011;14738;42.668;23.250;2023-03-14T05:10:56;30.33;;;18.23;;
5297;SDS011;14738;42.668;23.250;2023-03-14T05:13:22;24.80;;;17.83;;
5297;SDS011;14738;42.668;23.250;2023-03-14T05:15:48;31.90;;;17.87;;
5297;SDS011;14738;42.668;23.250;2023-03-14T05:18:15;20.93;;;17.23;;
5297;SDS011;14738;42.668;23.250;2023-03-14T05:20:41;29.50;;;19.57;;
5297;SDS011;14738;42.668;23.250;2023-03-14T05:23:08;23.70;;;16.70;;
5297;SDS011;14738;42.668;23.250;2023-03-14T05:25:34;22.10;;;16.83;;
5297;SDS011;14738;42.668;23.250;2023-03-14T05:27:59;21.70;;;15.77;;
5297;SDS011;14738;42.668;23.250;2023-03-14T05:30:25;20.57;;;15.20;;
5297;SDS011;14738;42.668;23.250;2023-03-14T05:32:50;20.20;;;15.73;;
5297;SDS011;14738;42.668;23.250;2023-03-14T05:35:16;19.07;;;15.90;;
5297;SDS011;14738;42.668;23.250;2023-03-14T05:37:42;26.40;;;15.20;;
5297;SDS011;14738;42.668;23.250;2023-03-14T05:40:07;26.90;;;17.20;;
5297;SDS011;14738;42.668;23.250;2023-03-14T05:42:33;22.27;;;15.60;;
5297;SDS011;14738;42.668;23.250;2023-03-14T05:44:59;21.67;;;15.20;;
5297;SDS011;14738;42.668;23.250;2023-03-14T05:47:25;25.50;;;17.40;;
5297;SDS011;14738;42.668;23.250;2023-03-14T05:49:50;27.87;;;17.97;;
5297;SDS011;14738;42.668;23.250;2023-03-14T05:52:16;24.03;;;16.20;;
5297;SDS011;14738;42.668;23.250;2023-03-14T05:54:42;36.10;;;23.00;;
5297;SDS011;14738;42.668;23.250;2023-03-14T05:57:07;48.33;;;32.50;;
5297;SDS011;14738;42.668;23.250;2023-03-14T05:59:33;32.77;;;22.07;;
5297;SDS011;14738;42.668;23.250;2023-03-14T06:01:58;18.50;;;15.13;;
5297;SDS011;14738;42.668;23.250;2023-03-14T06:04:24;16.60;;;14.17;;
5297;SDS011;14738;42.668;23.250;2023-03-14T06:06:50;20.43;;;15.40;;
5297;SDS011;14738;42.668;23.250;2023-03-14T06:09:23;19.60;;;14.37;;
5297;SDS011;14738;42.668;23.250;2023-03-14T06:11:53;29.73;;;17.87;;
5297;SDS011;14738;42.668;23.250;2023-03-14T06:14:18;23.87;;;18.40;;
5297;SDS011;14738;42.668;23.250;2023-03-14T06:16:44;33.53;;;18.77;;
5297;SDS011;14738;42.668;23.250;2023-03-14T06:19:09;22.20;;;17.07;;
5297;SDS011;14738;42.668;23.250;2023-03-14T06:21:35;20.57;;;17.17;;
5297;SDS011;14738;42.668;23.250;2023-03-14T06:24:00;22.77;;;16.80;;
5297;SDS011;14738;42.668;23.250;2023-03-14T06:26:26;21.83;;;17.07;;
5297;SDS011;14738;42.668;23.250;2023-03-14T06:28:51;19.23;;;16.93;;
5297;SDS011;14738;42.668;23.250;2023-03-14T06:31:18;23.20;;;17.10;;
5297;SDS011;14738;42.668;23.250;2023-03-14T06:33:43;25.23;;;19.03;;
5297;SDS011;14738;42.668;23.250;2023-03-14T06:36:09;31.07;;;20.00;;
5297;SDS011;14738;42.668;23.250;2023-03-14T06:38:35;24.00;;;15.53;;
5297;SDS011;14738;42.668;23.250;2023-03-14T06:41:07;22.17;;;15.93;;
5297;SDS011;14738;42.668;23.250;2023-03-14T06:43:33;23.10;;;17.37;;
5297;SDS011;14738;42.668;23.250;2023-03-14T06:45:58;26.00;;;16.80;;
5297;SDS011;14738;42.668;23.250;2023-03-14T06:48:24;29.60;;;17.50;;
5297;SDS011;14738;42.668;23.250;2023-03-14T06:50:50;18.50;;;15.50;;
5297;SDS011;14738;42.668;23.250;2023-03-14T06:53:15;20.83;;;15.07;;
5297;SDS011;14738;42.668;23.250;2023-03-14T06:55:40;17.97;;;15.90;;
5297;SDS011;14738;42.668;23.250;2023-03-14T06:58:08;18.77;;;15.73;;
5297;SDS011;14738;42.668;23.250;2023-03-14T07:00:33;17.43;;;15.33;;
5297;SDS011;14738;42.668;23.250;2023-03-14T07:02:59;18.57;;;15.80;;
5297;SDS011;14738;42.668;23.250;2023-03-14T07:05:25;18.10;;;15.30;;
5297;SDS011;14738;42.668;23.250;2023-03-14T07:07:50;25.47;;;16.70;;
5297;SDS011;14738;42.668;23.250;2023-03-14T07:10:16;20.87;;;16.77;;
5297;SDS011;14738;42.668;23.250;2023-03-14T07:12:41;22.50;;;16.20;;
5297;SDS011;14738;42.668;23.250;2023-03-14T07:15:07;20.57;;;15.20;;
5297;SDS011;14738;42.668;23.250;2023-03-14T07:17:33;18.87;;;14.97;;
5297;SDS011;14738;42.668;23.250;2023-03-14T07:19:58;24.37;;;16.00;;
5297;SDS011;14738;42.668;23.250;2023-03-14T07:22:24;21.07;;;16.20;;
5297;SDS011;14738;42.668;23.250;2023-03-14T07:24:49;19.80;;;15.93;;
5297;SDS011;14738;42.668;23.250;2023-03-14T07:27:15;21.10;;;16.90;;
5297;SDS011;14738;42.668;23.250;2023-03-14T07:29:43;26.03;;;17.40;;
5297;SDS011;14738;42.668;23.250;2023-03-14T07:32:09;27.87;;;15.47;;
5297;SDS011;14738;42.668;23.250;2023-03-14T07:34:34;19.77;;;16.80;;
5297;SDS011;14738;42.668;23.250;2023-03-14T07:37:00;23.93;;;15.33;;
5297;SDS011;14738;42.668;23.250;2023-03-14T07:39:25;17.57;;;14.87;;
5297;SDS011;14738;42.668;23.250;2023-03-14T07:41:51;21.60;;;15.63;;
5297;SDS011;14738;42.668;23.250;2023-03-14T07:44:16;17.03;;;14.40;;
5297;SDS011;14738;42.668;23.250;2023-03-14T07:46:42;28.57;;;15.93;;
5297;SDS011;14738;42.668;23.250;2023-03-14T07:49:07;21.27;;;16.67;;
5297;SDS011;14738;42.668;23.250;2023-03-14T07:51:33;22.33;;;16.03;;
5297;SDS011;14738;42.668;23.250;2023-03-14T07:53:58;24.07;;;15.37;;
5297;SDS011;14738;42.668;23.250;2023-03-14T07:56:23;19.87;;;15.80;;
5297;SDS011;14738;42.668;23.250;2023-03-14T07:58:49;24.63;;;15.83;;
5297;SDS011;14738;42.668;23.250;2023-03-14T08:01:14;19.80;;;14.97;;
5297;SDS011;14738;42.668;23.250;2023-03-14T08:03:40;22.73;;;15.40;;
5297;SDS011;14738;42.668;23.250;2023-03-14T08:06:05;32.07;;;17.77;;
5297;SDS011;14738;42.668;23.250;2023-03-14T08:08:31;19.70;;;15.60;;
5297;SDS011;14738;42.668;23.250;2023-03-14T08:11:02;26.17;;;17.13;;
5297;SDS011;14738;42.668;23.250;2023-03-14T08:13:28;19.37;;;16.20;;
5297;SDS011;14738;42.668;23.250;2023-03-14T08:15:53;26.87;;;17.17;;
5297;SDS011;14738;42.668;23.250;2023-03-14T08:18:19;26.13;;;18.77;;
5297;SDS011;14738;42.668;23.250;2023-03-14T08:20:44;21.30;;;17.90;;
5297;SDS011;14738;42.668;23.250;2023-03-14T08:23:10;20.20;;;16.50;;
5297;SDS011;14738;42.668;23.250;2023-03-14T08:25:37;23.07;;;17.97;;
5297;SDS011;14738;42.668;23.250;2023-03-14T08:28:03;20.60;;;16.20;;
5297;SDS011;14738;42.668;23.250;2023-03-14T08:30:29;22.17;;;16.57;;
5297;SDS011;14738;42.668;23.250;2023-03-14T08:32:56;19.00;;;14.10;;
5297;SDS011;14738;42.668;23.250;2023-03-14T08:35:22;40.07;;;16.07;;
5297;SDS011;14738;42.668;23.250;2023-03-14T08:37:48;20.90;;;16.43;;
5297;SDS011;14738;42.668;23.250;2023-03-14T08:40:14;16.87;;;14.57;;
5297;SDS011;14738;42.668;23.250;2023-03-14T08:42:42;21.40;;;14.57;;
5297;SDS011;14738;42.668;23.250;2023-03-14T08:45:08;21.70;;;16.10;;
5297;SDS011;14738;42.668;23.250;2023-03-14T08:47:36;17.93;;;14.23;;
5297;SDS011;14738;42.668;23.250;2023-03-14T08:50:02;21.53;;;16.73;;
5297;SDS011;14738;42.668;23.250;2023-03-14T08:52:29;26.70;;;17.43;;
5297;SDS011;14738;42.668;23.250;2023-03-14T08:54:55;18.37;;;16.00;;
5297;SDS011;14738;42.668;23.250;2023-03-14T08:57:21;22.77;;;16.60;;
5297;SDS011;14738;42.668;23.250;2023-03-14T08:59:47;20.87;;;16.97;;
5297;SDS011;14738;42.668;23.250;2023-03-14T09:02:12;21.30;;;17.50;;
5297;SDS011;14738;42.668;23.250;2023-03-14T09:04:38;21.20;;;16.77;;
5297;SDS011;14738;42.668;23.250;2023-03-14T09:07:03;19.43;;;15.63;;
5297;SDS011;14738;42.668;23.250;2023-03-14T09:09:29;18.47;;;16.00;;
5297;SDS011;14738;42.668;23.250;2023-03-14T09:11:55;19.03;;;15.60;;
5297;SDS011;14738;42.668;23.250;2023-03-14T09:14:21;26.50;;;18.00;;
5297;SDS011;14738;42.668;23.250;2023-03-14T09:16:46;19.33;;;15.90;;
5297;SDS011;14738;42.668;23.250;2023-03-14T09:19:12;18.33;;;15.87;;
5297;SDS011;14738;42.668;23.250;2023-03-14T09:21:37;21.40;;;16.00;;
5297;SDS011;14738;42.668;23.250;2023-03-14T09:24:04;19.23;;;15.67;;
5297;SDS011;14738;42.668;23.250;2023-03-14T09:26:29;16.63;;;14.50;;
5297;SDS011;14738;42.668;23.250;2023-03-14T09:28:55;15.63;;;12.87;;
5297;SDS011;14738;42.668;23.250;2023-03-14T09:31:20;16.70;;;13.87;;
5297;SDS011;14738;42.668;23.250;2023-03-14T09:33:46;13.73;;;12.43;;
5297;SDS011;14738;42.668;23.250;2023-03-14T09:36:11;13.30;;;11.90;;
5297;SDS011;14738;42.668;23.250;2023-03-14T09:38:37;14.50;;;11.63;;
5297;SDS011;14738;42.668;23.250;2023-03-14T09:41:03;13.47;;;11.20;;
5297;SDS011;14738;42.668;23.250;2023-03-14T09:43:40;11.80;;;10.60;;
5297;SDS011;14738;42.668;23.250;2023-03-14T09:46:07;15.80;;;11.97;;
5297;SDS011;14738;42.668;23.250;2023-03-14T09:48:36;13.93;;;12.30;;
5297;SDS011;14738;42.668;23.250;2023-03-14T09:51:03;12.70;;;11.03;;
5297;SDS011;14738;42.668;23.250;2023-03-14T09:53:39;14.13;;;11.00;;
5297;SDS011;14738;42.668;23.250;2023-03-14T09:56:11;11.27;;;10.07;;
5297;SDS011;14738;42.668;23.250;2023-03-14T09:58:42;12.77;;;10.57;;
5297;SDS011;14738;42.668;23.250;2023-03-14T10:01:11;12.13;;;10.87;;
5297;SDS011;14738;42.668;23.250;2023-03-14T10:03:41;17.10;;;11.03;;
5297;SDS011;14738;42.668;23.250;2023-03-14T10:06:13;16.00;;;11.60;;
5297;SDS011;14738;42.668;23.250;2023-03-14T10:08:42;12.47;;;11.03;;
5297;SDS011;14738;42.668;23.250;2023-03-14T10:11:19;16.43;;;10.90;;
5297;SDS011;14738;42.668;23.250;2023-03-14T10:13:49;11.50;;;10.37;;
5297;SDS011;14738;42.668;23.250;2023-03-14T10:16:28;12.80;;;11.00;;
5297;SDS011;14738;42.668;23.250;2023-03-14T10:18:58;10.93;;;9.73;;
5297;SDS011;14738;42.668;23.250;2023-03-14T10:21:32;13.27;;;9.37;;
5297;SDS011;14738;42.668;23.250;2023-03-14T10:24:21;13.60;;;10.70;;
5297;SDS011;14738;42.668;23.250;2023-03-14T10:26:54;11.93;;;10.73;;
5297;SDS011;14738;42.668;23.250;2023-03-14T10:29:23;13.93;;;9.83;;
5297;SDS011;14738;42.668;23.250;2023-03-14T10:31:59;14.33;;;9.93;;
5297;SDS011;14738;42.668;23.250;2023-03-14T10:34:28;11.70;;;9.73;;
5297;SDS011;14738;42.668;23.250;2023-03-14T10:37:14;13.23;;;9.70;;
5297;SDS011;14738;42.668;23.250;2023-03-14T10:39:50;11.23;;;9.33;;
5297;SDS011;14738;42.668;23.250;2023-03-14T10:42:25;11.20;;;8.97;;
5297;SDS011;14738;42.668;23.250;2023-03-14T10:45:22;9.20;;;8.30;;
5297;SDS011;14738;42.668;23.250;2023-03-14T10:47:54;14.87;;;11.27;;
5297;SDS011;14738;42.668;23.250;2023-03-14T10:50:26;12.33;;;9.70;;
5297;SDS011;14738;42.668;23.250;2023-03-14T10:52:56;14.03;;;10.50;;
5297;SDS011;14738;42.668;23.250;2023-03-14T10:55:25;11.37;;;9.63;;
5297;SDS011;14738;42.668;23.250;2023-03-14T10:57:51;13.53;;;9.30;;
5297;SDS011;14738;42.668;23.250;2023-03-14T11:00:18;13.17;;;9.40;;
5297;SDS011;14738;42.668;23.250;2023-03-14T11:11:26;13.60;;;9.60;;
5297;SDS011;14738;42.668;23.250;2023-03-14T11:22:22;15.10;;;9.73;;
5297;SDS011;14738;42.668;23.250;2023-03-14T11:30:50;11.40;;;9.07;;
5297;SDS011;14738;42.668;23.250;2023-03-14T11:33:33;14.00;;;8.67;;
5297;SDS011;14738;42.668;23.250;2023-03-14T11:36:09;11.63;;;9.80;;
5297;SDS011;14738;42.668;23.250;2023-03-14T11:38:47;17.37;;;8.60;;
5297;SDS011;14738;42.668;23.250;2023-03-14T11:41:19;11.53;;;7.97;;
5297;SDS011;14738;42.668;23.250;2023-03-14T11:43:50;9.60;;;7.83;;
5297;SDS011;14738;42.668;23.250;2023-03-14T11:46:32;8.70;;;6.83;;
5297;SDS011;14738;42.668;23.250;2023-03-14T11:57:42;7.10;;;6.50;;
5297;SDS011;14738;42.668;23.250;2023-03-14T12:00:17;7.90;;;7.20;;
5297;SDS011;14738;42.668;23.250;2023-03-14T12:08:33;5.60;;;5.20;;
5297;SDS011;14738;42.668;23.250;2023-03-14T12:14:18;6.87;;;6.20;;
5297;SDS011;14738;42.668;23.250;2023-03-14T12:17:06;6.83;;;5.80;;
5297;SDS011;14738;42.668;23.250;2023-03-14T12:19:44;5.47;;;4.90;;
5297;SDS011;14738;42.668;23.250;2023-03-14T12:24:55;6.23;;;5.67;;
5297;SDS011;14738;42.668;23.250;2023-03-14T12:30:16;11.00;;;5.53;;
5297;SDS011;14738;42.668;23.250;2023-03-14T12:35:42;6.43;;;5.17;;
5297;SDS011;14738;42.668;23.250;2023-03-14T12:38:16;5.20;;;4.43;;
5297;SDS011;14738;42.668;23.250;2023-03-14T12:43:48;4.87;;;4.47;;
5297;SDS011;14738;42.668;23.250;2023-03-14T12:48:43;6.17;;;4.70;;
5297;SDS011;14738;42.668;23.250;2023-03-14T12:51:14;7.10;;;4.83;;
5297;SDS011;14738;42.668;23.250;2023-03-14T12:53:47;11.80;;;7.07;;
5297;SDS011;14738;42.668;23.250;2023-03-14T13:04:35;6.30;;;5.50;;
5297;SDS011;14738;42.668;23.250;2023-03-14T13:08:02;7.00;;;5.50;;
5297;SDS011;14738;42.668;23.250;2023-03-14T13:10:29;9.33;;;4.53;;
5297;SDS011;14738;42.668;23.250;2023-03-14T13:12:57;6.97;;;5.20;;
5297;SDS011;14738;42.668;23.250;2023-03-14T13:15:29;5.23;;;4.40;;
5297;SDS011;14738;42.668;23.250;2023-03-14T13:17:59;4.73;;;4.33;;
5297;SDS011;14738;42.668;23.250;2023-03-14T13:22:59;6.30;;;5.70;;
5297;SDS011;14738;42.668;23.250;2023-03-14T13:25:24;4.17;;;3.87;;
5297;SDS011;14738;42.668;23.250;2023-03-14T13:27:55;6.90;;;3.90;;
5297;SDS011;14738;42.668;23.250;2023-03-14T13:30:35;5.80;;;4.20;;
5297;SDS011;14738;42.668;23.250;2023-03-14T13:33:05;6.00;;;3.60;;
5297;SDS011;14738;42.668;23.250;2023-03-14T13:35:38;7.50;;;4.57;;
5297;SDS011;14738;42.668;23.250;2023-03-14T13:38:13;8.60;;;3.70;;
5297;SDS011;14738;42.668;23.250;2023-03-14T13:40:41;7.23;;;3.70;;
5297;SDS011;14738;42.668;23.250;2023-03-14T13:43:23;3.43;;;3.00;;
5297;SDS011;14738;42.668;23.250;2023-03-14T13:45:51;4.30;;;3.90;;
5297;SDS011;14738;42.668;23.250;2023-03-14T13:48:19;4.30;;;3.90;;
5297;SDS011;14738;42.668;23.250;2023-03-14T13:50:58;4.03;;;3.63;;
5297;SDS011;14738;42.668;23.250;2023-03-14T13:53:26;3.73;;;3.43;;
5297;SDS011;14738;42.668;23.250;2023-03-14T13:55:52;3.83;;;3.53;;
5297;SDS011;14738;42.668;23.250;2023-03-14T14:00:55;8.93;;;4.60;;
5297;SDS011;14738;42.668;23.250;2023-03-14T14:03:31;5.77;;;3.27;;
5297;SDS011;14738;42.668;23.250;2023-03-14T14:05:58;5.50;;;3.27;;
5297;SDS011;14738;42.668;23.250;2023-03-14T14:08:24;3.27;;;2.93;;
5297;SDS011;14738;42.668;23.250;2023-03-14T14:10:50;3.40;;;3.10;;
5297;SDS011;14738;42.668;23.250;2023-03-14T14:13:22;6.33;;;4.90;;
5297;SDS011;14738;42.668;23.250;2023-03-14T14:15:51;19.30;;;7.63;;
5297;SDS011;14738;42.668;23.250;2023-03-14T14:18:20;11.70;;;6.87;;
5297;SDS011;14738;42.668;23.250;2023-03-14T14:20:50;5.70;;;4.30;;
5297;SDS011;14738;42.668;23.250;2023-03-14T14:23:20;4.60;;;3.70;;
5297;SDS011;14738;42.668;23.250;2023-03-14T14:25:51;5.37;;;4.40;;
5297;SDS011;14738;42.668;23.250;2023-03-14T14:28:34;7.90;;;4.33;;
5297;SDS011;14738;42.668;23.250;2023-03-14T14:33:45;3.23;;;3.03;;
5297;SDS011;14738;42.668;23.250;2023-03-14T14:39:06;4.93;;;3.20;;
5297;SDS011;14738;42.668;23.250;2023-03-14T14:41:41;3.20;;;2.90;;
5297;SDS011;14738;42.668;23.250;2023-03-14T14:44:10;5.23;;;3.90;;
5297;SDS011;14738;42.668;23.250;2023-03-14T14:46:37;6.70;;;4.60;;
5297;SDS011;14738;42.668;23.250;2023-03-14T14:49:05;7.80;;;4.87;;
5297;SDS011;14738;42.668;23.250;2023-03-14T14:51:40;9.90;;;4.03;;
5297;SDS011;14738;42.668;23.250;2023-03-14T14:56:48;2.67;;;2.47;;
5297;SDS011;14738;42.668;23.250;2023-03-14T14:59:26;2.97;;;2.67;;
5297;SDS011;14738;42.668;23.250;2023-03-14T15:01:59;2.67;;;2.57;;
5297;SDS011;14738;42.668;23.250;2023-03-14T15:04:26;3.33;;;2.60;;
5297;SDS011;14738;42.668;23.250;2023-03-14T15:06:54;4.23;;;2.90;;
5297;SDS011;14738;42.668;23.250;2023-03-14T15:09:20;3.30;;;3.00;;
5297;SDS011;14738;42.668;23.250;2023-03-14T15:11:46;2.73;;;2.50;;
5297;SDS011;14738;42.668;23.250;2023-03-14T15:14:13;2.80;;;2.60;;
5297;SDS011;14738;42.668;23.250;2023-03-14T15:16:39;3.13;;;2.93;;
5297;SDS011;14738;42.668;23.250;2023-03-14T15:19:10;3.90;;;2.60;;
5297;SDS011;14738;42.668;23.250;2023-03-14T15:21:44;3.70;;;2.70;;
5297;SDS011;14738;42.668;23.250;2023-03-14T15:24:09;2.70;;;2.50;;
5297;SDS011;14738;42.668;23.250;2023-03-14T15:26:35;3.83;;;3.10;;
5297;SDS011;14738;42.668;23.250;2023-03-14T15:29:00;2.60;;;2.40;;
5297;SDS011;14738;42.668;23.250;2023-03-14T15:31:26;2.57;;;2.40;;
5297;SDS011;14738;42.668;23.250;2023-03-14T15:33:51;3.00;;;2.80;;
5297;SDS011;14738;42.668;23.250;2023-03-14T15:38:52;7.03;;;3.03;;
5297;SDS011;14738;42.668;23.250;2023-03-14T15:41:20;5.73;;;4.03;;
5297;SDS011;14738;42.668;23.250;2023-03-14T15:43:46;5.07;;;3.20;;
5297;SDS011;14738;42.668;23.250;2023-03-14T15:46:12;5.70;;;3.00;;
5297;SDS011;14738;42.668;23.250;2023-03-14T15:48:39;3.80;;;2.70;;
5297;SDS011;14738;42.668;23.250;2023-03-14T15:51:05;3.20;;;2.90;;
5297;SDS011;14738;42.668;23.250;2023-03-14T15:53:31;3.13;;;2.83;;
5297;SDS011;14738;42.668;23.250;2023-03-14T15:55:57;4.20;;;3.80;;
5297;SDS011;14738;42.668;23.250;2023-03-14T15:58:22;9.13;;;3.17;;
5297;SDS011;14738;42.668;23.250;2023-03-14T16:00:48;3.90;;;3.40;;
5297;SDS011;14738;42.668;23.250;2023-03-14T16:03:14;7.63;;;3.60;;
5297;SDS011;14738;42.668;23.250;2023-03-14T16:05:40;3.60;;;3.40;;
5297;SDS011;14738;42.668;23.250;2023-03-14T16:08:06;9.57;;;3.90;;
5297;SDS011;14738;42.668;23.250;2023-03-14T16:10:32;5.63;;;3.87;;